Time;durP1;ratioP1;P1;durP2;ratioP2;P2;SDS_P1;SDS_P2;PMS_P1;PMS_P2;Temp;Humidity;BMP_temperature;BMP_pressure;BME280_temperature;BME280_humidity;BME280_pressure;Samples;Min_cycle;Max_cycle;Signal;HPM_P1;HPM_P2
2022/04/25 00:04:22;;;;;;;9.90;9.00;;;12.80;41.60;;;;;;10263360;28;20232;-74
2022/04/25 00:09:26;;;;;;;10.03;9.23;;;12.90;42.40;;;;;;10262544;28;20254;-74
2022/04/25 00:14:29;;;;;;;9.77;8.97;;;12.90;41.80;;;;;;10262983;28;20734;-74
2022/04/25 00:19:35;;;;;;;9.27;8.47;;;12.90;41.80;;;;;;10259213;28;20227;-74
2022/04/25 00:24:38;;;;;;;8.33;7.63;;;12.90;42.50;;;;;;10260448;28;20228;-74
2022/04/25 00:29:41;;;;;;;7.63;7.03;;;12.80;41.90;;;;;;10259816;28;20699;-74
2022/04/25 00:34:46;;;;;;;7.47;6.87;;;12.90;41.90;;;;;;10262413;28;20239;-75
2022/04/25 00:39:49;;;;;;;7.30;6.70;;;12.90;42.50;;;;;;10263543;28;20238;-74
2022/04/25 00:44:52;;;;;;;6.73;6.13;;;12.90;41.70;;;;;;10255835;28;20727;-74
2022/04/25 00:49:57;;;;;;;6.70;6.20;;;12.90;41.70;;;;;;10263460;28;20242;-74
2022/04/25 00:55:02;;;;;;;6.70;6.10;;;13.00;42.30;;;;;;10261603;28;20232;-74
2022/04/25 01:00:08;;;;;;;6.17;5.67;;;13.00;42.40;;;;;;10261221;28;20236;-74
2022/04/25 01:05:12;;;;;;;5.93;5.53;;;13.00;42.10;;;;;;10263317;28;20244;-74
2022/04/25 01:10:16;;;;;;;6.30;5.70;;;13.00;42.20;;;;;;10254882;28;20279;-74
2022/04/25 01:15:19;;;;;;;6.30;5.80;;;13.00;41.80;;;;;;10253260;28;20240;-74
2022/04/25 01:20:23;;;;;;;6.67;6.17;;;13.00;41.70;;;;;;10256950;28;20244;-74
2022/04/25 01:30:48;;;;;;;7.20;6.60;;;13.10;42.10;;;;;;10258798;28;20595;-74
2022/04/25 01:35:52;;;;;;;7.10;6.50;;;13.10;41.80;;;;;;10260885;28;20227;-72
2022/04/25 01:40:57;;;;;;;7.10;6.50;;;13.10;41.80;;;;;;10253405;28;20271;-72
2022/04/25 01:46:00;;;;;;;6.80;6.30;;;13.10;42.00;;;;;;10255606;28;20716;-72
2022/04/25 01:51:04;;;;;;;7.17;6.57;;;13.10;41.70;;;;;;10259857;28;20317;-72
2022/04/25 01:56:08;;;;;;;6.87;6.33;;;13.00;41.80;;;;;;10257932;28;20232;-72
2022/04/25 02:01:12;;;;;;;6.97;6.37;;;13.00;42.30;;;;;;10254141;28;21002;-72
2022/04/25 02:06:15;;;;;;;6.23;5.73;;;13.00;41.80;;;;;;10257900;28;20457;-73
2022/04/25 02:11:24;;;;;;;6.27;5.77;;;13.00;41.80;;;;;;10255699;28;20240;-73
2022/04/25 02:16:27;;;;;;;5.23;4.83;;;13.00;42.50;;;;;;10255131;28;20236;-72
2022/04/25 02:21:30;;;;;;;5.47;5.07;;;12.90;42.00;;;;;;10257027;28;20235;-72
2022/04/25 02:26:35;;;;;;;5.10;4.70;;;12.90;42.00;;;;;;10254350;28;20652;-73
2022/04/25 02:31:38;;;;;;;4.70;4.30;;;12.90;42.50;;;;;;10253909;28;20231;-72
2022/04/25 02:36:41;;;;;;;4.60;4.30;;;12.90;42.20;;;;;;10229547;28;20229;-72
2022/04/25 02:41:46;;;;;;;5.00;4.60;;;12.90;42.50;;;;;;10255833;28;20240;-72
2022/04/25 02:46:49;;;;;;;4.80;4.40;;;12.80;42.40;;;;;;10254752;28;20228;-72
2022/04/25 02:51:52;;;;;;;5.50;5.10;;;12.80;42.40;;;;;;10259006;28;20235;-72
2022/04/25 02:56:57;;;;;;;5.50;5.10;;;12.80;42.40;;;;;;10255982;28;20228;-72
2022/04/25 03:02:00;;;;;;;5.40;5.00;;;12.80;42.40;;;;;;10252620;28;20728;-72
2022/04/25 03:07:04;;;;;;;5.63;5.13;;;12.80;42.40;;;;;;10255866;28;20607;-72
2022/04/25 03:12:10;;;;;;;6.43;5.93;;;12.80;42.40;;;;;;10256372;28;20722;-72
2022/04/25 03:17:13;;;;;;;6.47;5.97;;;12.80;42.40;;;;;;10254945;28;20728;-72
2022/04/25 03:22:17;;;;;;;7.23;6.63;;;12.80;42.40;;;;;;10258459;28;20252;-72
2022/04/25 03:27:21;;;;;;;7.77;7.07;;;12.80;42.50;;;;;;10256680;28;20252;-72
2022/04/25 03:32:24;;;;;;;7.67;7.00;;;12.80;42.40;;;;;;10257219;28;20723;-72
2022/04/25 03:37:28;;;;;;;7.53;6.93;;;12.80;42.40;;;;;;10264294;28;20235;-72
2022/04/25 03:42:34;;;;;;;7.83;7.23;;;12.80;42.40;;;;;;10264700;28;20593;-72
2022/04/25 03:47:37;;;;;;;8.40;7.70;;;12.80;42.40;;;;;;10266098;28;21170;-72
2022/04/25 03:52:43;;;;;;;8.60;7.80;;;12.70;42.30;;;;;;10261175;28;20228;-72
2022/04/25 03:57:47;;;;;;;8.40;7.70;;;12.80;42.40;;;;;;10262486;28;20233;-72
2022/04/25 04:02:51;;;;;;;8.70;7.90;;;12.80;42.40;;;;;;10263783;28;20236;-72
2022/04/25 04:07:55;;;;;;;9.40;8.60;;;12.70;42.30;;;;;;10264638;28;20253;-72
2022/04/25 04:13:00;;;;;;;9.67;8.83;;;12.80;42.40;;;;;;10261311;28;20239;-72
2022/04/25 04:18:05;;;;;;;9.17;8.47;;;12.80;42.40;;;;;;10257289;28;20242;-72
2022/04/25 04:23:09;;;;;;;9.50;8.73;;;12.70;42.30;;;;;;10256219;28;20640;-72
2022/04/25 04:28:13;;;;;;;9.90;9.10;;;12.60;42.20;;;;;;10264132;28;20236;-72
2022/04/25 04:33:16;;;;;;;9.40;8.60;;;12.60;42.50;;;;;;10260935;28;20247;-73
2022/04/25 04:38:19;;;;;;;9.57;8.77;;;12.50;42.20;;;;;;10258213;28;20228;-72
2022/04/25 04:43:24;;;;;;;10.60;9.73;;;12.60;42.40;;;;;;10259343;28;20236;-72
2022/04/25 04:48:27;;;;;;;10.87;9.93;;;12.60;42.90;;;;;;10261164;28;20228;-72
2022/04/25 04:53:30;;;;;;;10.00;9.10;;;12.60;42.30;;;;;;10260875;28;20240;-72
2022/04/25 04:58:39;;;;;;;10.97;10.03;;;12.50;42.30;;;;;;10261698;28;21647;-72
2022/04/25 05:03:43;;;;;;;10.83;9.93;;;12.50;43.10;;;;;;10262624;28;20242;-72
2022/04/25 05:08:47;;;;;;;11.87;10.77;;;12.50;42.70;;;;;;10260139;28;20236;-73
2022/04/25 05:13:51;;;;;;;12.00;10.90;;;12.50;42.80;;;;;;10255152;28;20243;-72
2022/04/25 05:18:56;;;;;;;12.17;11.10;;;12.50;43.40;;;;;;10252995;28;20235;-72
2022/04/25 05:23:59;;;;;;;12.70;11.50;;;12.50;42.90;;;;;;10258570;28;20760;-72
2022/04/25 05:29:04;;;;;;;11.70;10.60;;;12.50;43.10;;;;;;10258565;28;20239;-72
2022/04/25 05:34:09;;;;;;;13.00;11.80;;;12.50;43.50;;;;;;10259199;28;20279;-72
2022/04/25 05:39:12;;;;;;;13.47;12.27;;;12.50;43.10;;;;;;10263350;28;20224;-72
2022/04/25 05:44:17;;;;;;;13.60;12.30;;;12.50;43.20;;;;;;10260419;28;20314;-72
2022/04/25 05:54:41;;;;;;;14.87;13.57;;;12.50;43.30;;;;;;10250377;28;20242;-77
2022/04/25 05:59:45;;;;;;;14.83;13.47;;;12.60;43.30;;;;;;10257094;28;20231;-77
2022/04/25 06:04:48;;;;;;;15.47;14.17;;;12.60;43.50;;;;;;10256874;28;20224;-77
2022/04/25 06:09:51;;;;;;;17.10;15.60;;;12.60;43.10;;;;;;10259568;28;20231;-77
2022/04/25 06:14:57;;;;;;;17.50;16.00;;;12.70;43.30;;;;;;10252443;28;20224;-77
2022/04/25 06:20:00;;;;;;;16.60;15.10;;;12.60;43.60;;;;;;10257019;28;20244;-77
2022/04/25 06:25:04;;;;;;;17.27;15.77;;;12.70;43.40;;;;;;10257486;28;20228;-77
2022/04/25 06:30:10;;;;;;;17.17;15.67;;;12.70;43.10;;;;;;10259714;28;20244;-77
2022/04/25 06:35:14;;;;;;;16.73;15.33;;;12.70;43.20;;;;;;10251618;28;20734;-77
2022/04/25 06:40:17;;;;;;;17.03;15.63;;;12.80;43.00;;;;;;10254796;28;20739;-77
2022/04/25 06:45:22;;;;;;;17.40;15.97;;;12.80;42.90;;;;;;10254635;28;20243;-77
2022/04/25 06:50:25;;;;;;;17.07;15.67;;;12.80;43.10;;;;;;10257614;28;20235;-77
2022/04/25 06:55:29;;;;;;;16.40;15.00;;;12.80;42.80;;;;;;10255648;28;20240;-77
2022/04/25 07:00:34;;;;;;;15.97;14.57;;;12.80;42.40;;;;;;10255678;28;20240;-77
2022/04/25 07:05:38;;;;;;;15.87;14.43;;;12.80;42.40;;;;;;10255543;28;20304;-77
2022/04/25 07:10:41;;;;;;;15.20;13.93;;;12.80;42.40;;;;;;10263083;28;20234;-77
2022/04/25 07:15:46;;;;;;;14.77;13.57;;;12.70;42.30;;;;;;10261163;28;20274;-77
2022/04/25 07:20:49;;;;;;;14.03;12.73;;;12.70;42.40;;;;;;10263597;28;20255;-77
2022/04/25 07:31:15;;;;;;;10.80;10.00;;;12.70;42.30;;;;;;10262370;28;20239;-76
2022/04/25 07:36:21;;;;;;;9.83;9.03;;;12.80;42.40;;;;;;10274611;23;20235;-76
2022/04/25 07:41:27;;;;;;;8.43;7.83;;;12.90;42.50;;;;;;10306035;28;20242;-76
2022/04/25 07:46:32;;;;;;;8.23;7.53;;;12.90;42.40;;;;;;10304465;28;20236;-76
2022/04/25 07:51:36;;;;;;;7.97;7.37;;;13.00;41.80;;;;;;10304914;28;20228;-76
2022/04/25 07:56:39;;;;;;;6.67;6.17;;;13.10;42.70;;;;;;10305007;28;20235;-76
2022/04/25 08:01:44;;;;;;;7.00;6.50;;;13.20;42.30;;;;;;10304644;28;20227;-75
2022/04/25 08:06:47;;;;;;;7.20;6.70;;;13.40;42.90;;;;;;10299192;28;20235;-76
2022/04/25 08:17:56;;;;;;;6.50;6.00;;;13.60;42.70;;;;;;10307124;28;20220;-75
2022/04/25 08:22:35;;;;;;;6.10;5.70;;;13.90;41.20;;;;;;10305863;28;20234;-76
2022/04/25 08:27:39;;;;;;;5.90;5.50;;;14.00;41.70;;;;;;10298182;28;20230;-76
2022/04/25 08:32:43;;;;;;;5.80;5.40;;;14.20;41.60;;;;;;10301410;28;20242;-75
2022/04/25 08:37:47;;;;;;;5.27;4.87;;;14.40;41.20;;;;;;10301046;28;20239;-75
2022/04/25 08:42:51;;;;;;;5.90;5.50;;;14.50;40.00;;;;;;10303690;28;20737;-75
2022/04/25 08:47:58;;;;;;;6.10;5.60;;;14.50;40.10;;;;;;10300148;28;20235;-75
2022/04/25 08:53:01;;;;;;;6.60;6.10;;;14.50;39.80;;;;;;10301063;28;20231;-76
2022/04/25 08:58:06;;;;;;;6.93;6.33;;;14.50;40.20;;;;;;10303125;28;20601;-76
2022/04/25 09:03:12;;;;;;;6.67;6.10;;;14.50;40.00;;;;;;10301934;28;20246;-75
2022/04/25 09:08:16;;;;;;;6.67;6.17;;;14.60;39.40;;;;;;10299553;28;20238;-76
2022/04/25 09:13:19;;;;;;;5.77;5.27;;;14.50;39.30;;;;;;10298251;28;20235;-76
2022/04/25 09:18:24;;;;;;;5.27;4.87;;;14.50;38.80;;;;;;10298656;28;20246;-76
2022/04/25 09:23:27;;;;;;;4.90;4.50;;;14.50;38.40;;;;;;10303631;28;20239;-76
2022/04/25 09:28:34;;;;;;;4.63;4.33;;;14.50;39.20;;;;;;10303268;28;20569;-76
2022/04/25 09:33:38;;;;;;;4.17;3.87;;;14.50;38.60;;;;;;10295475;28;20246;-76
2022/04/25 09:38:43;;;;;;;4.13;3.83;;;14.60;37.90;;;;;;10303048;28;20230;-76
2022/04/25 09:43:47;;;;;;;3.93;3.63;;;14.60;38.30;;;;;;10302460;28;20231;-75
2022/04/25 09:49:06;;;;;;;4.40;4.00;;;14.60;38.30;;;;;;10295108;28;20251;-76
2022/04/25 09:54:11;;;;;;;3.83;3.53;;;14.60;37.40;;;;;;10295067;28;20710;-75
2022/04/25 09:59:14;;;;;;;3.83;3.53;;;14.60;38.30;;;;;;10299056;28;20241;-76
2022/04/25 10:04:37;;;;;;;3.70;3.40;;;14.70;38.00;;;;;;10296181;28;20227;-76
2022/04/25 10:09:41;;;;;;;3.30;3.10;;;14.80;37.50;;;;;;10298241;28;20235;-76
2022/04/25 10:14:45;;;;;;;3.53;3.33;;;14.90;38.00;;;;;;10295421;28;20230;-76
2022/04/25 10:19:51;;;;;;;3.60;3.37;;;15.00;37.80;;;;;;10281979;28;20731;-76
2022/04/25 10:24:54;;;;;;;3.83;3.63;;;15.10;37.30;;;;;;10293013;28;20242;-75
2022/04/25 10:30:02;;;;;;;3.73;3.47;;;15.20;37.80;;;;;;10291949;28;20258;-75
2022/04/25 10:35:13;;;;;;;3.70;3.50;;;15.30;37.20;;;;;;10288714;28;20243;-76
2022/04/25 10:44:10;;;;;;;4.20;3.77;;;15.40;37.20;;;;;;10281860;28;20312;-75
2022/04/25 10:45:55;;;;;;;3.87;3.63;;;15.50;38.30;;;;;;10286914;28;20235;-76
2022/04/25 10:51:16;;;;;;;3.80;3.50;;;15.70;35.80;;;;;;10286458;28;20271;-76
2022/04/25 10:56:21;;;;;;;3.20;3.00;;;15.90;35.70;;;;;;10289352;28;20243;-76
2022/04/25 11:01:31;;;;;;;3.97;3.63;;;16.00;37.10;;;;;;10285941;28;20231;-76
2022/04/25 11:06:36;;;;;;;3.97;3.67;;;16.10;34.80;;;;;;10283925;28;20864;-76
2022/04/25 11:11:51;;;;;;;3.80;3.50;;;16.10;36.00;;;;;;10292434;28;20231;-76
2022/04/25 11:17:10;;;;;;;3.93;3.63;;;16.20;35.50;;;;;;10260337;28;20241;-76
2022/04/25 11:22:53;;;;;;;4.80;4.50;;;16.30;35.90;;;;;;10271882;28;20718;-75
2022/04/25 11:28:04;;;;;;;4.10;3.80;;;16.30;33.80;;;;;;10249265;28;20747;-76
2022/04/25 11:33:10;;;;;;;4.17;3.87;;;16.40;34.50;;;;;;10277609;28;20318;-76
2022/04/25 11:39:50;;;;;;;3.93;3.63;;;16.50;36.00;;;;;;10289965;28;20508;-76
2022/04/25 11:43:38;;;;;;;4.33;4.03;;;16.50;35.40;;;;;;10287712;28;20222;-76
2022/04/25 11:48:41;;;;;;;4.00;3.70;;;16.60;36.40;;;;;;10286532;28;20243;-75
2022/04/25 11:53:46;;;;;;;3.80;3.60;;;16.70;36.40;;;;;;10293041;28;20232;-76
2022/04/25 11:58:50;;;;;;;4.00;3.70;;;16.80;35.70;;;;;;10294540;28;20758;-76
2022/04/25 12:04:13;;;;;;;3.80;3.50;;;17.00;35.40;;;;;;10289511;28;20250;-75
2022/04/25 12:20:02;;;;;;;4.20;3.90;;;17.20;35.20;;;;;;10304858;28;20758;-76
2022/04/25 12:25:16;;;;;;;3.80;3.60;;;17.30;34.10;;;;;;10308049;28;20707;-75
2022/04/25 12:30:25;;;;;;;3.77;3.57;;;17.20;32.70;;;;;;10310535;28;20231;-75
2022/04/25 12:35:31;;;;;;;3.50;3.30;;;17.20;33.10;;;;;;10306815;28;20330;-75
2022/04/25 12:40:56;;;;;;;4.10;3.80;;;17.30;35.20;;;;;;10305133;28;20283;-75
2022/04/25 12:45:59;;;;;;;4.70;4.37;;;17.40;34.20;;;;;;10306466;28;20241;-75
2022/04/25 12:51:03;;;;;;;5.10;4.70;;;17.50;35.30;;;;;;10299444;28;20246;-76
2022/04/25 12:56:24;;;;;;;4.80;4.50;;;17.60;35.30;;;;;;10305709;28;20239;-75
2022/04/25 13:01:29;;;;;;;4.90;4.43;;;17.70;34.50;;;;;;10293072;28;20231;-75
2022/04/25 13:06:35;;;;;;;5.13;4.73;;;17.70;34.50;;;;;;10281803;28;20231;-75
2022/04/25 13:11:40;;;;;;;5.23;4.83;;;17.70;34.50;;;;;;10301120;28;20231;-73
2022/04/25 13:16:45;;;;;;;4.33;4.03;;;17.80;34.60;;;;;;10300774;28;20274;-74
2022/04/25 13:21:48;;;;;;;4.60;4.20;;;17.90;34.70;;;;;;10297374;28;20239;-73
2022/04/25 13:26:53;;;;;;;4.23;3.93;;;17.90;34.70;;;;;;10302758;28;20227;-73
2022/04/25 13:31:56;;;;;;;4.20;3.90;;;18.00;33.90;;;;;;10303019;28;20235;-73
2022/04/25 13:37:00;;;;;;;4.80;4.40;;;18.00;34.50;;;;;;10304405;28;20636;-73
2022/04/25 13:42:05;;;;;;;4.00;3.70;;;18.00;33.60;;;;;;10301663;28;20233;-74
2022/04/25 13:47:09;;;;;;;3.80;3.50;;;18.00;32.90;;;;;;10303110;28;20233;-74
2022/04/25 13:52:13;;;;;;;3.60;3.30;;;18.00;33.20;;;;;;10307214;28;20238;-73
2022/04/25 13:57:17;;;;;;;3.80;3.50;;;18.00;33.20;;;;;;10308184;28;20227;-73
2022/04/25 14:07:47;;;;;;;3.87;3.57;;;18.10;32.80;;;;;;10287691;28;20230;-73
2022/04/25 14:12:51;;;;;;;4.20;3.90;;;18.10;32.90;;;;;;10301316;28;20525;-76
2022/04/25 14:17:55;;;;;;;5.13;4.73;;;18.10;32.60;;;;;;10300494;28;20616;-78
2022/04/25 14:22:58;;;;;;;4.17;3.90;;;18.10;33.50;;;;;;10304500;28;20241;-76
2022/04/25 14:28:04;;;;;;;4.33;4.03;;;18.20;33.80;;;;;;10298616;28;20716;-76
2022/04/25 14:33:07;;;;;;;4.07;3.77;;;18.30;33.10;;;;;;10297279;28;20328;-76
2022/04/25 14:38:10;;;;;;;4.60;4.30;;;18.40;33.20;;;;;;10299413;28;20237;-76
2022/04/25 14:43:14;;;;;;;4.10;3.80;;;18.40;32.40;;;;;;10295812;28;20238;-76
2022/04/25 14:48:17;;;;;;;3.70;3.40;;;18.50;32.10;;;;;;10294518;28;20670;-76
2022/04/25 14:58:43;;;;;;;3.37;3.17;;;18.50;32.30;;;;;;10292717;28;20239;-76
2022/04/25 15:03:46;;;;;;;3.27;3.07;;;18.50;31.60;;;;;;10295574;28;20227;-76
2022/04/25 15:08:49;;;;;;;3.70;3.50;;;18.50;31.90;;;;;;10294639;28;20255;-76
2022/04/25 15:13:54;;;;;;;3.30;3.10;;;18.60;31.90;;;;;;10296921;28;20256;-76
2022/04/25 15:18:57;;;;;;;3.40;3.20;;;18.60;31.80;;;;;;10292627;28;20242;-76
2022/04/25 15:24:00;;;;;;;3.60;3.30;;;18.70;32.90;;;;;;10290900;28;20875;-76
2022/04/25 15:29:04;;;;;;;3.13;2.93;;;18.80;31.90;;;;;;10302009;28;20930;-76
2022/04/25 15:34:08;;;;;;;3.10;2.90;;;18.90;31.30;;;;;;10300406;28;20227;-76
2022/04/25 15:39:11;;;;;;;3.50;2.80;;;18.90;31.40;;;;;;10302954;28;20239;-76
2022/04/25 15:44:15;;;;;;;3.07;2.80;;;18.90;31.30;;;;;;10300617;28;20238;-76
2022/04/25 15:49:20;;;;;;;3.03;2.83;;;18.90;30.80;;;;;;10303065;28;20243;-76
2022/04/25 15:59:45;;;;;;;2.90;2.70;;;19.00;30.80;;;;;;10304042;28;21031;-77
2022/04/25 16:04:49;;;;;;;2.90;2.70;;;18.90;30.00;;;;;;10304034;28;20239;-76
2022/04/25 16:09:52;;;;;;;2.60;2.50;;;18.90;30.40;;;;;;10302370;28;20711;-76
2022/04/25 16:14:57;;;;;;;2.63;2.43;;;19.00;30.50;;;;;;10293545;28;20901;-76
2022/04/25 16:20:09;;;;;;;2.90;2.70;;;19.00;30.00;;;;;;10266764;28;20771;-77
2022/04/25 16:25:12;;;;;;;2.60;2.40;;;19.00;30.20;;;;;;10309582;28;20235;-76
2022/04/25 16:30:17;;;;;;;2.90;2.70;;;19.00;31.20;;;;;;10281735;28;20248;-77
2022/04/25 16:35:20;;;;;;;2.83;2.70;;;19.10;30.30;;;;;;10298153;28;20245;-76
2022/04/25 16:40:23;;;;;;;2.60;2.50;;;19.10;30.80;;;;;;10309545;28;20611;-77
2022/04/25 16:45:27;;;;;;;3.37;3.17;;;19.10;30.60;;;;;;10308218;28;20234;-77
2022/04/25 16:50:31;;;;;;;3.87;3.67;;;19.10;29.90;;;;;;10307131;28;20281;-78
2022/04/25 16:55:34;;;;;;;5.93;5.43;;;19.00;30.00;;;;;;10325708;23;20238;-78
2022/04/25 17:00:38;;;;;;;5.40;5.00;;;18.90;30.30;;;;;;10272145;28;20246;-78
2022/04/25 17:05:42;;;;;;;5.70;5.30;;;18.80;30.50;;;;;;10266696;28;20223;-79
2022/04/25 17:10:45;;;;;;;17.87;15.97;;;18.50;30.80;;;;;;10267338;28;20240;-79
2022/04/25 17:15:51;;;;;;;7.80;7.20;;;18.30;31.00;;;;;;10265699;28;20310;-79
2022/04/25 17:20:55;;;;;;;7.37;6.77;;;18.20;31.30;;;;;;10279250;28;20323;-79
2022/04/25 17:25:58;;;;;;;7.70;7.10;;;18.00;31.80;;;;;;10269962;28;20233;-79
2022/04/25 17:35:20;;;;;;;7.30;6.73;;;17.70;32.00;;;;;;10271644;28;20236;-79
2022/04/25 17:36:28;;;;;;;5.97;5.57;;;17.40;32.60;;;;;;10273404;28;20326;-79
